Time;durP1;ratioP1;P1;durP2;ratioP2;P2;SDS_P1;SDS_P2;PMS_P1;PMS_P2;Temp;Humidity;BMP_temperature;BMP_pressure;BME280_temperature;BME280_humidity;BME280_pressure;Samples;Min_cycle;Max_cycle;Signal;HPM_P1;HPM_P2
2023/03/18 00:00:42;;;;;;;0.20;0.20;;;10.70;99.90;;;;;;5029420;28;20442;-78
2023/03/18 00:03:09;;;;;;;0.20;0.20;;;10.70;99.90;;;;;;5031404;28;20969;-79
2023/03/18 00:05:35;;;;;;;0.20;0.20;;;10.70;99.90;;;;;;5024287;28;20644;-79
2023/03/18 00:08:01;;;;;;;0.20;0.20;;;10.60;99.90;;;;;;5032679;28;20558;-79
2023/03/18 00:10:27;;;;;;;0.20;0.20;;;10.50;99.90;;;;;;5044121;28;20194;-79
2023/03/18 00:12:52;;;;;;;0.20;0.20;;;10.50;99.90;;;;;;5029896;28;20477;-78
2023/03/18 00:15:18;;;;;;;0.20;0.20;;;10.40;99.90;;;;;;5034243;28;20266;-78
2023/03/18 00:17:45;;;;;;;0.20;0.20;;;10.50;99.90;;;;;;5034769;28;20389;-79
2023/03/18 00:20:12;;;;;;;0.20;0.20;;;10.40;99.90;;;;;;5032542;28;20804;-78
2023/03/18 00:22:39;;;;;;;0.20;0.20;;;10.40;99.90;;;;;;5036723;28;20532;-78
2023/03/18 00:25:07;;;;;;;0.20;0.20;;;10.20;99.90;;;;;;5024325;28;20908;-79
2023/03/18 00:27:34;;;;;;;0.20;0.20;;;10.20;99.90;;;;;;5043382;28;20613;-78
2023/03/18 00:30:00;;;;;;;0.20;0.20;;;10.20;99.90;;;;;;5030018;28;20443;-78
2023/03/18 00:32:27;;;;;;;0.20;0.20;;;10.20;99.90;;;;;;5030007;28;20615;-78
2023/03/18 00:34:53;;;;;;;0.20;0.20;;;10.20;99.90;;;;;;5032320;28;20450;-79
2023/03/18 00:37:29;;;;;;;0.20;0.20;;;10.20;99.90;;;;;;5037953;28;20433;-78
2023/03/18 00:39:57;;;;;;;0.20;0.20;;;10.20;99.90;;;;;;5035569;28;20952;-79
2023/03/18 00:42:23;;;;;;;0.20;0.20;;;10.10;99.90;;;;;;5030444;28;20580;-78
2023/03/18 00:44:49;;;;;;;0.20;0.20;;;10.10;99.90;;;;;;5037770;28;20473;-78
2023/03/18 00:47:15;;;;;;;0.20;0.20;;;10.00;99.90;;;;;;5027993;28;20640;-78
2023/03/18 00:49:40;;;;;;;0.20;0.20;;;10.10;99.90;;;;;;5044649;28;20445;-78
2023/03/18 00:52:07;;;;;;;0.20;0.20;;;10.10;99.90;;;;;;5013729;28;20202;-79
2023/03/18 00:54:32;;;;;;;0.20;0.20;;;10.00;99.90;;;;;;5032886;28;20184;-78
2023/03/18 00:56:58;;;;;;;0.27;0.27;;;10.00;99.90;;;;;;5031228;28;20877;-78
2023/03/18 00:59:24;;;;;;;0.20;0.20;;;9.90;99.90;;;;;;5011583;28;20194;-78
2023/03/18 01:01:50;;;;;;;0.20;0.20;;;10.00;99.90;;;;;;5028607;28;20190;-78
2023/03/18 01:04:16;;;;;;;0.20;0.20;;;9.90;99.90;;;;;;5029061;28;20457;-78
2023/03/18 01:06:42;;;;;;;0.30;0.30;;;10.00;99.90;;;;;;5040591;28;20669;-78
2023/03/18 01:09:09;;;;;;;0.20;0.20;;;9.90;99.90;;;;;;5019508;28;20444;-79
2023/03/18 01:11:35;;;;;;;0.20;0.20;;;10.00;99.90;;;;;;5030913;28;20179;-79
2023/03/18 01:14:01;;;;;;;0.20;0.20;;;9.90;99.90;;;;;;5035138;28;20500;-78
2023/03/18 01:16:26;;;;;;;0.20;0.20;;;9.90;99.90;;;;;;5026945;28;20282;-79
2023/03/18 01:18:52;;;;;;;0.20;0.20;;;9.90;99.90;;;;;;5030193;28;20549;-79
2023/03/18 01:21:18;;;;;;;0.23;0.23;;;9.90;99.90;;;;;;5032868;28;20194;-79
2023/03/18 01:23:44;;;;;;;0.20;0.20;;;10.00;99.90;;;;;;5038047;28;20809;-78
2023/03/18 01:26:10;;;;;;;0.30;0.30;;;10.00;99.90;;;;;;5035331;28;20192;-80
2023/03/18 01:28:36;;;;;;;0.20;0.20;;;10.00;99.90;;;;;;5028613;28;20237;-78
2023/03/18 01:31:01;;;;;;;0.20;0.20;;;10.00;99.90;;;;;;5030882;28;20179;-79
2023/03/18 01:33:28;;;;;;;0.20;0.20;;;9.90;99.90;;;;;;5013505;28;20569;-79
2023/03/18 01:35:56;;;;;;;0.20;0.20;;;9.80;99.90;;;;;;5035446;28;20187;-79
2023/03/18 01:38:22;;;;;;;0.20;0.20;;;9.90;99.90;;;;;;5041263;28;20872;-78
2023/03/18 01:40:49;;;;;;;0.20;0.20;;;9.90;99.90;;;;;;5019889;28;20523;-79
2023/03/18 01:43:37;;;;;;;0.20;0.20;;;9.80;99.90;;;;;;5050214;28;20465;-78
2023/03/18 01:46:31;;;;;;;0.20;0.20;;;9.80;99.90;;;;;;5008999;28;20446;-78
2023/03/18 01:48:57;;;;;;;0.20;0.20;;;9.80;99.90;;;;;;5017323;28;20449;-78
2023/03/18 01:51:25;;;;;;;0.20;0.20;;;9.90;99.90;;;;;;5006781;28;20497;-79
2023/03/18 01:53:52;;;;;;;0.20;0.20;;;9.80;99.90;;;;;;5028214;28;20523;-81
2023/03/18 01:56:19;;;;;;;0.20;0.20;;;9.80;99.90;;;;;;5042720;28;20447;-78
2023/03/18 01:58:48;;;;;;;0.30;0.30;;;9.70;99.90;;;;;;5043199;28;20501;-80
2023/03/18 02:01:38;;;;;;;0.20;0.20;;;9.80;99.90;;;;;;5034069;28;20488;-80
2023/03/18 02:04:05;;;;;;;0.20;0.20;;;9.80;99.90;;;;;;5011284;28;20514;-78
2023/03/18 02:06:32;;;;;;;0.20;0.20;;;9.80;99.90;;;;;;5025181;28;20480;-78
2023/03/18 02:08:57;;;;;;;0.20;0.20;;;9.80;99.90;;;;;;5027257;28;20453;-78
2023/03/18 02:11:23;;;;;;;0.20;0.20;;;9.70;99.90;;;;;;5032065;28;20435;-78
2023/03/18 02:13:49;;;;;;;0.20;0.20;;;9.70;99.90;;;;;;5024201;28;20227;-78
2023/03/18 02:16:24;;;;;;;0.20;0.20;;;9.80;99.90;;;;;;5028146;28;20957;-78
2023/03/18 02:18:58;;;;;;;0.20;0.20;;;9.80;99.90;;;;;;5029750;28;20179;-80
2023/03/18 02:21:42;;;;;;;0.20;0.20;;;9.80;99.90;;;;;;5022314;28;20442;-81
2023/03/18 02:24:32;;;;;;;0.20;0.20;;;9.80;99.90;;;;;;5027522;28;20442;-80
2023/03/18 02:27:11;;;;;;;0.20;0.20;;;9.90;99.90;;;;;;5026719;28;20433;-78
2023/03/18 02:29:38;;;;;;;0.20;0.20;;;10.00;99.90;;;;;;5024631;28;20575;-80
2023/03/18 02:32:05;;;;;;;0.20;0.20;;;10.00;99.90;;;;;;5031369;28;20530;-80
2023/03/18 02:34:33;;;;;;;0.20;0.20;;;10.00;99.90;;;;;;5040009;28;20649;-80
2023/03/18 02:36:59;;;;;;;0.20;0.20;;;9.90;99.90;;;;;;5032586;28;20444;-80
2023/03/18 02:39:26;;;;;;;0.20;0.20;;;9.90;99.90;;;;;;5027239;28;20450;-80
2023/03/18 02:41:52;;;;;;;0.30;0.30;;;9.90;99.90;;;;;;5034450;28;20871;-80
2023/03/18 02:44:18;;;;;;;0.20;0.20;;;9.90;99.90;;;;;;5036946;28;20473;-80
2023/03/18 02:46:56;;;;;;;0.23;0.23;;;9.80;99.90;;;;;;5036476;28;20950;-80
2023/03/18 02:49:23;;;;;;;0.20;0.20;;;9.80;99.90;;;;;;5036193;28;20444;-80
2023/03/18 02:51:50;;;;;;;0.20;0.20;;;9.80;99.90;;;;;;5034640;28;20466;-80
2023/03/18 02:54:22;;;;;;;0.30;0.30;;;9.70;99.90;;;;;;5028456;28;20487;-79
2023/03/18 02:56:48;;;;;;;0.20;0.20;;;9.70;99.90;;;;;;5043132;28;20482;-77
2023/03/18 02:59:14;;;;;;;0.30;0.30;;;9.50;99.90;;;;;;5032738;28;20502;-77
2023/03/18 03:01:42;;;;;;;0.30;0.30;;;9.30;99.90;;;;;;5036616;28;20188;-79
2023/03/18 03:04:07;;;;;;;0.20;0.20;;;9.30;99.90;;;;;;5011328;28;20445;-77
2023/03/18 03:06:34;;;;;;;0.20;0.20;;;9.30;99.90;;;;;;5038419;28;20452;-80
2023/03/18 03:09:01;;;;;;;0.20;0.20;;;9.20;99.90;;;;;;5045274;28;20179;-77
2023/03/18 03:11:27;;;;;;;0.20;0.20;;;9.10;99.90;;;;;;5027480;28;20446;-76
2023/03/18 03:13:53;;;;;;;0.27;0.27;;;9.20;99.90;;;;;;5025653;28;20483;-77
2023/03/18 03:16:19;;;;;;;0.30;0.30;;;9.20;99.90;;;;;;5009528;28;20529;-77
2023/03/18 03:18:44;;;;;;;0.20;0.20;;;9.20;99.90;;;;;;5030850;28;20210;-76
2023/03/18 03:21:11;;;;;;;0.30;0.30;;;9.10;99.90;;;;;;5037180;28;20194;-77
2023/03/18 03:23:38;;;;;;;0.20;0.20;;;9.20;99.90;;;;;;5013045;28;20183;-77
2023/03/18 03:26:04;;;;;;;0.30;0.30;;;9.20;99.90;;;;;;5031517;28;20458;-76
2023/03/18 03:28:31;;;;;;;0.30;0.30;;;9.20;99.90;;;;;;5033060;28;20469;-77
2023/03/18 03:30:57;;;;;;;0.20;0.20;;;9.10;99.90;;;;;;5037381;28;20434;-77
2023/03/18 03:33:23;;;;;;;0.30;0.30;;;9.10;99.90;;;;;;5032532;28;20476;-80
2023/03/18 03:35:49;;;;;;;0.30;0.30;;;9.10;99.90;;;;;;5049476;28;20181;-80
2023/03/18 03:38:14;;;;;;;0.30;0.30;;;9.20;99.90;;;;;;5035419;28;20215;-79
2023/03/18 03:40:42;;;;;;;0.20;0.20;;;9.20;99.90;;;;;;5013368;28;20456;-79
2023/03/18 03:43:11;;;;;;;0.20;0.20;;;9.30;99.90;;;;;;5031061;28;20480;-77
2023/03/18 03:45:37;;;;;;;0.30;0.30;;;9.20;99.90;;;;;;5032135;28;20437;-78
2023/03/18 03:48:03;;;;;;;0.27;0.27;;;9.30;99.90;;;;;;5031520;28;21243;-79
2023/03/18 03:50:28;;;;;;;0.30;0.30;;;9.30;99.90;;;;;;5037599;28;20307;-78
2023/03/18 03:52:54;;;;;;;0.30;0.30;;;9.40;99.90;;;;;;5018456;28;20214;-79
2023/03/18 03:55:21;;;;;;;0.20;0.20;;;9.40;99.90;;;;;;5032497;28;20246;-79
2023/03/18 03:57:47;;;;;;;0.30;0.30;;;9.40;99.90;;;;;;5030455;28;20187;-79
2023/03/18 04:00:17;;;;;;;0.30;0.30;;;9.40;99.90;;;;;;5019062;28;20956;-78
2023/03/18 04:02:44;;;;;;;0.20;0.20;;;9.40;99.90;;;;;;5031467;28;20965;-79
2023/03/18 04:05:12;;;;;;;0.20;0.20;;;9.40;99.90;;;;;;5032596;28;20442;-79
2023/03/18 04:07:38;;;;;;;0.20;0.20;;;9.40;99.90;;;;;;5023107;28;20449;-79
2023/03/18 04:10:05;;;;;;;0.20;0.20;;;9.40;99.90;;;;;;5018941;28;20434;-79
2023/03/18 04:12:30;;;;;;;0.20;0.20;;;9.40;99.90;;;;;;5037614;28;20507;-78
2023/03/18 04:14:56;;;;;;;0.20;0.20;;;9.40;99.90;;;;;;5036746;28;20442;-78
2023/03/18 04:17:21;;;;;;;0.20;0.20;;;9.50;99.90;;;;;;5020986;28;20192;-78
2023/03/18 04:19:47;;;;;;;0.20;0.20;;;9.50;99.90;;;;;;5031390;28;20278;-78
2023/03/18 04:22:13;;;;;;;0.20;0.20;;;9.50;99.90;;;;;;5031235;28;20191;-78
2023/03/18 04:24:38;;;;;;;0.30;0.30;;;9.50;99.90;;;;;;5030427;28;20192;-77
2023/03/18 04:27:04;;;;;;;0.10;0.10;;;9.40;99.90;;;;;;5035837;28;20651;-78
2023/03/18 04:29:31;;;;;;;0.30;0.30;;;9.50;99.90;;;;;;5030257;28;20328;-78
2023/03/18 04:31:57;;;;;;;0.20;0.20;;;9.50;99.90;;;;;;5013206;28;20519;-78
2023/03/18 04:34:23;;;;;;;0.30;0.30;;;9.50;99.90;;;;;;5033638;28;20488;-78
2023/03/18 04:36:49;;;;;;;0.30;0.30;;;9.50;99.90;;;;;;5029610;28;20442;-78
2023/03/18 04:39:15;;;;;;;0.20;0.20;;;9.50;99.90;;;;;;5032232;28;21021;-78
2023/03/18 04:41:40;;;;;;;0.30;0.30;;;9.50;99.90;;;;;;5020038;28;20454;-78
2023/03/18 04:44:06;;;;;;;0.20;0.20;;;9.50;99.90;;;;;;5028403;28;20231;-78
2023/03/18 04:46:31;;;;;;;0.20;0.20;;;9.50;99.90;;;;;;5027414;28;20188;-78
2023/03/18 04:48:58;;;;;;;0.30;0.30;;;9.50;99.90;;;;;;5029677;28;20187;-78
2023/03/18 04:51:26;;;;;;;0.20;0.20;;;9.50;99.90;;;;;;5023319;28;20195;-78
2023/03/18 04:53:52;;;;;;;0.20;0.20;;;9.50;99.90;;;;;;5037547;28;20478;-78
2023/03/18 04:56:18;;;;;;;0.30;0.30;;;9.50;99.90;;;;;;5032538;28;20456;-78
2023/03/18 04:58:44;;;;;;;0.20;0.20;;;9.50;99.90;;;;;;5031918;28;20462;-78
2023/03/18 05:01:11;;;;;;;0.30;0.30;;;9.50;99.90;;;;;;5038673;28;20888;-78
2023/03/18 05:03:37;;;;;;;0.20;0.20;;;9.50;99.90;;;;;;5033116;28;20179;-78
2023/03/18 05:06:03;;;;;;;0.20;0.20;;;9.50;99.90;;;;;;5027151;28;21279;-79
2023/03/18 05:08:29;;;;;;;0.30;0.30;;;9.50;99.90;;;;;;5047263;28;20539;-78
2023/03/18 05:10:54;;;;;;;0.30;0.30;;;9.60;99.90;;;;;;5035993;28;20192;-78
2023/03/18 05:13:20;;;;;;;0.20;0.20;;;9.50;99.90;;;;;;5029917;28;20221;-78
2023/03/18 05:15:45;;;;;;;0.20;0.20;;;9.60;99.90;;;;;;5015496;28;20635;-79
2023/03/18 05:18:11;;;;;;;0.20;0.20;;;9.50;99.90;;;;;;5012392;28;20183;-78
2023/03/18 05:20:37;;;;;;;0.20;0.20;;;9.50;99.90;;;;;;5027906;28;20191;-78
2023/03/18 05:23:03;;;;;;;0.20;0.20;;;9.50;99.90;;;;;;5048650;28;20700;-78
2023/03/18 05:25:28;;;;;;;0.20;0.20;;;9.50;99.90;;;;;;5039129;28;20187;-78
2023/03/18 05:27:54;;;;;;;0.20;0.20;;;9.50;99.90;;;;;;5047690;28;20613;-79
2023/03/18 05:30:20;;;;;;;0.20;0.20;;;9.50;99.90;;;;;;5031322;28;20191;-79
2023/03/18 05:32:46;;;;;;;0.30;0.30;;;9.50;99.90;;;;;;5013796;28;20231;-78
2023/03/18 05:35:12;;;;;;;0.20;0.20;;;9.50;99.90;;;;;;5041555;28;20190;-79
2023/03/18 05:37:38;;;;;;;0.20;0.20;;;9.50;99.90;;;;;;5024125;28;20929;-79
2023/03/18 05:40:08;;;;;;;0.20;0.20;;;9.50;99.90;;;;;;5028054;28;20500;-75
2023/03/18 05:42:35;;;;;;;0.30;0.30;;;9.50;99.90;;;;;;5027227;28;20233;-78
2023/03/18 05:45:01;;;;;;;0.30;0.30;;;9.50;99.90;;;;;;5033893;28;20569;-78
2023/03/18 05:47:27;;;;;;;0.20;0.20;;;9.60;99.90;;;;;;5010025;28;21198;-78
2023/03/18 05:49:52;;;;;;;0.30;0.30;;;9.50;99.90;;;;;;5029327;28;20469;-78
2023/03/18 05:52:18;;;;;;;0.20;0.20;;;9.60;99.90;;;;;;5010961;28;20188;-78
2023/03/18 05:54:44;;;;;;;0.20;0.20;;;9.50;99.90;;;;;;5031644;28;20191;-78
2023/03/18 05:57:10;;;;;;;0.20;0.20;;;9.50;99.90;;;;;;5025530;28;20187;-79
2023/03/18 05:59:35;;;;;;;0.30;0.30;;;9.60;99.90;;;;;;5026896;28;20234;-78
2023/03/18 06:02:01;;;;;;;0.27;0.27;;;9.50;99.90;;;;;;5003878;28;20744;-78
2023/03/18 06:04:27;;;;;;;0.20;0.20;;;9.50;99.90;;;;;;5044265;28;20193;-78
2023/03/18 06:06:52;;;;;;;0.20;0.20;;;9.50;99.90;;;;;;5028043;28;21067;-78
2023/03/18 06:09:18;;;;;;;0.20;0.20;;;9.50;99.90;;;;;;5028836;28;20195;-80
2023/03/18 06:11:44;;;;;;;0.20;0.20;;;9.60;99.90;;;;;;5031431;28;20188;-77
2023/03/18 06:14:11;;;;;;;0.30;0.30;;;9.50;99.90;;;;;;5025114;28;20671;-77
2023/03/18 06:16:37;;;;;;;0.20;0.20;;;9.60;99.90;;;;;;5027898;28;20446;-77
2023/03/18 06:19:03;;;;;;;0.20;0.20;;;9.50;99.90;;;;;;5027984;28;20763;-78
2023/03/18 06:21:31;;;;;;;0.20;0.20;;;9.60;99.90;;;;;;5015367;28;20194;-77
2023/03/18 06:23:57;;;;;;;0.20;0.20;;;9.50;99.90;;;;;;5026165;28;20930;-78
2023/03/18 06:26:23;;;;;;;0.20;0.20;;;9.50;99.90;;;;;;5022311;28;20442;-77
2023/03/18 06:28:48;;;;;;;0.20;0.20;;;9.50;99.90;;;;;;5028144;28;20182;-80
2023/03/18 06:31:14;;;;;;;0.20;0.20;;;9.50;99.90;;;;;;5030732;28;20179;-78
2023/03/18 06:33:39;;;;;;;0.20;0.20;;;9.60;99.90;;;;;;5024781;28;20657;-77
2023/03/18 06:36:05;;;;;;;0.20;0.20;;;9.60;99.90;;;;;;5026211;28;20552;-77
2023/03/18 06:38:31;;;;;;;0.20;0.20;;;9.60;99.90;;;;;;5028253;28;20655;-81
2023/03/18 06:40:58;;;;;;;0.20;0.20;;;9.70;99.90;;;;;;5024035;28;20442;-78
2023/03/18 06:43:25;;;;;;;0.20;0.20;;;9.70;99.90;;;;;;5029729;28;20226;-77
2023/03/18 06:45:51;;;;;;;0.20;0.20;;;9.60;99.90;;;;;;5024803;28;20553;-78
2023/03/18 06:48:17;;;;;;;0.20;0.20;;;9.70;99.90;;;;;;5014081;28;20538;-77
2023/03/18 06:50:43;;;;;;;0.20;0.20;;;9.70;99.90;;;;;;5034356;28;20934;-78
2023/03/18 06:53:09;;;;;;;0.20;0.20;;;9.80;99.90;;;;;;5027473;28;20560;-77
2023/03/18 06:55:35;;;;;;;0.20;0.20;;;9.80;99.90;;;;;;5026411;28;20180;-77
2023/03/18 06:58:01;;;;;;;0.20;0.20;;;9.80;99.90;;;;;;5020604;28;20818;-77
2023/03/18 07:00:27;;;;;;;0.20;0.20;;;9.80;99.90;;;;;;5022288;28;20453;-79
2023/03/18 07:02:53;;;;;;;0.20;0.20;;;9.80;99.90;;;;;;5025893;28;20194;-79
2023/03/18 07:05:19;;;;;;;0.20;0.20;;;9.90;99.90;;;;;;5025500;28;20281;-79
2023/03/18 07:07:47;;;;;;;0.20;0.20;;;9.90;99.90;;;;;;5010063;28;20451;-77
2023/03/18 07:10:33;;;;;;;0.20;0.20;;;9.90;99.90;;;;;;5026102;28;20997;-76
2023/03/18 07:12:59;;;;;;;0.20;0.20;;;9.90;99.90;;;;;;5027746;28;20480;-77
2023/03/18 07:15:25;;;;;;;0.20;0.20;;;10.00;99.90;;;;;;5023947;28;20488;-77
2023/03/18 07:17:51;;;;;;;0.20;0.20;;;10.00;99.90;;;;;;5026468;28;20557;-77
2023/03/18 07:20:17;;;;;;;0.20;0.20;;;10.10;99.90;;;;;;5026464;28;20496;-76
2023/03/18 07:22:45;;;;;;;0.20;0.20;;;10.00;99.90;;;;;;5027456;28;20450;-77
2023/03/18 07:25:12;;;;;;;0.20;0.20;;;10.10;99.90;;;;;;5028065;28;20441;-76
2023/03/18 07:27:38;;;;;;;0.20;0.20;;;10.20;99.90;;;;;;5030305;28;20453;-76
2023/03/18 07:30:05;;;;;;;0.20;0.20;;;10.20;99.90;;;;;;5024465;28;20933;-76
2023/03/18 07:32:31;;;;;;;0.20;0.20;;;10.30;99.90;;;;;;5009308;28;20446;-76
2023/03/18 07:34:57;;;;;;;0.20;0.20;;;10.40;99.90;;;;;;5013708;28;20455;-76
2023/03/18 07:37:23;;;;;;;0.20;0.20;;;10.50;99.90;;;;;;5005902;28;20188;-77
2023/03/18 07:39:49;;;;;;;0.20;0.20;;;10.60;99.90;;;;;;5029916;28;20481;-76
2023/03/18 07:42:15;;;;;;;0.20;0.20;;;10.50;99.90;;;;;;5011437;28;20188;-78
2023/03/18 07:44:40;;;;;;;0.20;0.20;;;10.40;99.90;;;;;;5028291;28;20239;-78
2023/03/18 07:47:06;;;;;;;0.20;0.20;;;10.40;99.90;;;;;;5024909;28;20489;-78
2023/03/18 07:49:31;;;;;;;0.20;0.20;;;10.40;99.90;;;;;;5037642;28;20193;-78
2023/03/18 07:51:57;;;;;;;0.20;0.20;;;10.50;99.90;;;;;;5010857;28;20182;-78
2023/03/18 07:54:23;;;;;;;0.20;0.20;;;10.60;99.90;;;;;;5035752;28;20219;-76
2023/03/18 07:56:50;;;;;;;0.20;0.20;;;10.70;99.90;;;;;;5027589;28;20270;-78
2023/03/18 07:59:16;;;;;;;0.20;0.20;;;10.80;99.90;;;;;;5041011;28;20459;-77
2023/03/18 08:01:41;;;;;;;0.20;0.20;;;10.90;99.90;;;;;;5039984;28;20532;-78
2023/03/18 08:04:07;;;;;;;0.20;0.20;;;11.00;99.90;;;;;;5027436;28;20202;-77
2023/03/18 08:06:33;;;;;;;0.20;0.20;;;11.20;99.90;;;;;;5031934;28;20178;-77
2023/03/18 08:08:59;;;;;;;0.20;0.20;;;11.60;99.90;;;;;;5015700;28;20195;-77
2023/03/18 08:11:24;;;;;;;0.20;0.20;;;11.60;99.90;;;;;;5029630;28;20434;-77
2023/03/18 08:13:50;;;;;;;0.20;0.20;;;11.70;99.90;;;;;;5038842;28;20267;-80
2023/03/18 08:16:17;;;;;;;0.20;0.20;;;11.80;99.90;;;;;;5025202;28;20709;-79
2023/03/18 08:18:43;;;;;;;0.20;0.20;;;11.70;99.90;;;;;;5030089;28;20184;-77
2023/03/18 08:21:08;;;;;;;0.20;0.20;;;11.80;99.90;;;;;;5025385;28;20884;-77
2023/03/18 08:23:34;;;;;;;0.20;0.20;;;12.10;99.90;;;;;;5030454;28;20696;-77
2023/03/18 08:26:01;;;;;;;0.13;0.13;;;12.20;99.90;;;;;;5036773;28;20179;-77
2023/03/18 08:28:27;;;;;;;0.20;0.20;;;12.40;99.90;;;;;;5028230;28;20503;-76
2023/03/18 08:30:54;;;;;;;0.20;0.20;;;12.10;99.90;;;;;;5029016;28;20433;-76
2023/03/18 08:33:21;;;;;;;0.10;0.10;;;12.10;99.90;;;;;;5007800;28;20285;-80
2023/03/18 08:35:47;;;;;;;0.10;0.10;;;12.20;99.90;;;;;;5043860;28;20441;-77
2023/03/18 08:38:12;;;;;;;0.10;0.10;;;12.40;99.90;;;;;;5032757;28;20499;-77
2023/03/18 08:40:40;;;;;;;0.20;0.20;;;12.70;99.90;;;;;;5034760;28;20249;-79
2023/03/18 08:43:06;;;;;;;0.20;0.20;;;12.50;99.90;;;;;;5015567;28;20702;-78
2023/03/18 08:45:32;;;;;;;0.20;0.20;;;12.40;99.90;;;;;;5031975;28;20507;-77
2023/03/18 08:47:58;;;;;;;0.13;0.13;;;12.30;99.90;;;;;;5030972;28;20468;-79
2023/03/18 08:50:27;;;;;;;0.10;0.10;;;12.40;99.90;;;;;;5027668;28;20946;-79
2023/03/18 08:52:55;;;;;;;0.10;0.10;;;12.40;99.90;;;;;;5028041;28;20214;-76
2023/03/18 08:55:21;;;;;;;0.10;0.10;;;12.50;99.90;;;;;;5040384;28;20945;-78
2023/03/18 08:57:47;;;;;;;0.20;0.20;;;12.50;99.90;;;;;;5029530;28;20500;-78
2023/03/18 09:00:14;;;;;;;0.20;0.20;;;12.60;99.90;;;;;;5009940;28;20816;-78
2023/03/18 09:02:40;;;;;;;0.10;0.10;;;12.70;99.90;;;;;;5026780;28;20237;-78
2023/03/18 09:05:06;;;;;;;0.10;0.10;;;12.70;99.90;;;;;;5034336;28;20450;-79
2023/03/18 09:07:32;;;;;;;0.10;0.10;;;12.80;99.90;;;;;;5031522;28;20428;-81
2023/03/18 09:09:57;;;;;;;0.10;0.10;;;12.90;99.90;;;;;;5036805;28;20217;-80
2023/03/18 09:12:23;;;;;;;0.10;0.10;;;12.90;99.90;;;;;;5029146;28;20275;-81
2023/03/18 09:14:48;;;;;;;0.20;0.20;;;13.10;99.90;;;;;;5028139;28;20229;-80
2023/03/18 09:17:14;;;;;;;0.10;0.10;;;13.20;99.90;;;;;;5005545;28;20710;-81
2023/03/18 09:19:40;;;;;;;0.10;0.10;;;13.40;99.90;;;;;;5022310;28;20894;-81
2023/03/18 09:22:06;;;;;;;0.10;0.10;;;13.80;99.90;;;;;;5028171;28;20534;-80
2023/03/18 09:24:31;;;;;;;0.10;0.10;;;14.30;99.90;;;;;;5026449;28;20275;-80
2023/03/18 09:26:58;;;;;;;0.10;0.10;;;14.70;99.90;;;;;;5027647;28;20678;-80
2023/03/18 09:29:24;;;;;;;0.10;0.10;;;14.90;99.90;;;;;;5027706;28;20722;-79
2023/03/18 09:31:50;;;;;;;0.10;0.10;;;14.50;99.90;;;;;;5013615;28;20432;-79
2023/03/18 09:34:16;;;;;;;0.10;0.10;;;14.30;99.90;;;;;;5012274;28;20486;-80
2023/03/18 09:36:49;;;;;;;0.10;0.10;;;14.50;99.90;;;;;;5035524;28;20766;-80
2023/03/18 09:39:16;;;;;;;0.10;0.10;;;14.80;99.90;;;;;;5005287;28;20683;-80
2023/03/18 09:41:54;;;;;;;0.10;0.10;;;15.10;99.90;;;;;;5034474;28;20528;-80
2023/03/18 09:44:28;;;;;;;0.10;0.10;;;14.70;99.90;;;;;;5023010;28;20480;-79
2023/03/18 09:47:40;;;;;;;0.10;0.10;;;14.40;99.90;;;;;;5028594;28;20449;-79
2023/03/18 09:50:28;;;;;;;0.10;0.10;;;13.90;99.90;;;;;;4971302;28;20830;-79
2023/03/18 09:53:18;;;;;;;0.10;0.10;;;14.00;99.90;;;;;;5019712;28;20554;-79
2023/03/18 09:55:54;;;;;;;0.10;0.10;;;13.70;99.90;;;;;;5022998;28;20446;-80
2023/03/18 09:58:45;;;;;;;0.20;0.20;;;13.50;99.90;;;;;;5023752;28;20442;-80
2023/03/18 10:01:12;;;;;;;0.10;0.10;;;13.40;99.90;;;;;;5026719;28;20889;-81
2023/03/18 10:04:01;;;;;;;0.10;0.10;;;13.60;99.90;;;;;;5031724;28;20441;-81
2023/03/18 10:06:26;;;;;;;0.10;0.10;;;13.80;99.90;;;;;;5020753;28;20495;-80
2023/03/18 10:09:15;;;;;;;0.10;0.10;;;13.70;99.90;;;;;;5029936;28;20442;-80
2023/03/18 10:11:43;;;;;;;0.10;0.10;;;13.60;99.90;;;;;;5031035;28;20195;-77
2023/03/18 10:14:16;;;;;;;0.10;0.10;;;13.90;99.90;;;;;;5025287;28;20497;-78
2023/03/18 10:17:05;;;;;;;0.10;0.10;;;13.60;99.90;;;;;;5018142;28;20453;-77
2023/03/18 10:19:32;;;;;;;0.10;0.10;;;13.50;99.90;;;;;;5027653;28;20523;-77
2023/03/18 10:22:11;;;;;;;0.10;0.10;;;13.30;99.90;;;;;;5029448;28;20435;-77
2023/03/18 10:24:49;;;;;;;0.10;0.10;;;13.00;99.90;;;;;;5025968;28;20441;-77
2023/03/18 10:27:44;;;;;;;0.10;0.10;;;12.80;99.90;;;;;;5028866;28;20536;-77
2023/03/18 10:30:21;;;;;;;0.10;0.10;;;12.80;99.90;;;;;;5029620;28;20435;-78
2023/03/18 10:33:11;;;;;;;0.10;0.10;;;12.60;99.90;;;;;;5025218;28;20453;-77
2023/03/18 10:35:56;;;;;;;0.20;0.20;;;12.70;99.90;;;;;;5033428;28;20455;-78
2023/03/18 10:38:26;;;;;;;0.20;0.20;;;12.80;99.90;;;;;;5036997;28;20441;-77
2023/03/18 10:40:52;;;;;;;0.10;0.10;;;12.90;99.90;;;;;;5031933;28;20442;-78
2023/03/18 10:43:23;;;;;;;0.17;0.17;;;13.00;99.90;;;;;;5025663;28;20832;-78
2023/03/18 10:45:59;;;;;;;0.20;0.20;;;13.60;99.90;;;;;;5036613;28;20446;-77
2023/03/18 10:48:37;;;;;;;0.10;0.10;;;14.00;99.90;;;;;;5027636;28;21219;-77
2023/03/18 10:51:23;;;;;;;0.10;0.10;;;13.80;99.90;;;;;;5035839;28;20460;-78
2023/03/18 10:54:06;;;;;;;0.10;0.10;;;13.70;99.90;;;;;;5030194;28;20509;-77
2023/03/18 10:56:32;;;;;;;0.10;0.10;;;13.70;99.90;;;;;;5013668;28;20537;-77
2023/03/18 10:58:58;;;;;;;0.10;0.10;;;13.70;99.90;;;;;;5015873;28;20521;-77
2023/03/18 11:01:27;;;;;;;0.10;0.10;;;13.50;99.90;;;;;;5033391;28;20577;-77
2023/03/18 11:04:00;;;;;;;0.10;0.10;;;13.40;99.90;;;;;;5031794;28;20179;-77
2023/03/18 11:06:45;;;;;;;0.10;0.10;;;13.70;99.90;;;;;;5029431;28;20464;-77
2023/03/18 11:09:16;;;;;;;0.10;0.10;;;14.50;99.90;;;;;;5030630;28;20448;-77
2023/03/18 11:11:43;;;;;;;0.10;0.10;;;14.50;99.90;;;;;;5041049;28;20982;-77
2023/03/18 11:14:16;;;;;;;0.10;0.10;;;14.50;99.90;;;;;;5031927;28;20542;-77
2023/03/18 11:16:49;;;;;;;0.10;0.10;;;14.50;99.90;;;;;;5027412;28;20525;-77
2023/03/18 11:19:38;;;;;;;0.07;0.07;;;14.00;99.90;;;;;;5036154;28;20508;-76
2023/03/18 11:22:19;;;;;;;0.00;0.00;;;13.90;99.90;;;;;;5046304;28;20480;-77
2023/03/18 11:24:45;;;;;;;0.00;0.00;;;13.90;99.90;;;;;;5032652;28;20444;-77
2023/03/18 11:27:17;;;;;;;0.10;0.10;;;13.60;99.90;;;;;;5020331;28;20471;-77
2023/03/18 11:29:48;;;;;;;0.10;0.10;;;13.80;99.90;;;;;;5037982;28;20528;-76
2023/03/18 11:32:27;;;;;;;0.10;0.10;;;14.00;99.90;;;;;;5045052;28;20978;-77
2023/03/18 11:34:56;;;;;;;0.10;0.10;;;14.20;99.90;;;;;;5049918;28;20484;-77
2023/03/18 11:37:29;;;;;;;0.10;0.10;;;16.00;99.90;;;;;;5049931;28;20476;-79
2023/03/18 11:40:24;;;;;;;0.10;0.10;;;17.70;99.90;;;;;;5031464;28;20524;-79
2023/03/18 11:42:57;;;;;;;0.10;0.10;;;16.90;99.90;;;;;;5033728;28;20441;-79
2023/03/18 11:45:42;;;;;;;0.10;0.10;;;15.70;99.90;;;;;;5038493;28;20448;-76
2023/03/18 11:48:19;;;;;;;0.10;0.10;;;15.50;99.90;;;;;;5000147;28;20451;-76
2023/03/18 11:51:07;;;;;;;0.10;0.10;;;14.40;99.90;;;;;;5030501;28;20416;-76
2023/03/18 11:53:50;;;;;;;0.10;0.10;;;13.80;99.90;;;;;;5027267;28;20520;-77
2023/03/18 11:56:29;;;;;;;0.10;0.10;;;13.70;99.90;;;;;;4998466;28;20468;-76
2023/03/18 11:59:14;;;;;;;0.10;0.10;;;13.50;99.90;;;;;;5039887;28;20449;-76
2023/03/18 12:02:18;;;;;;;0.17;0.17;;;13.20;99.90;;;;;;5022576;28;20437;-76
2023/03/18 12:04:49;;;;;;;0.20;0.20;;;13.20;99.90;;;;;;5024025;28;20450;-76
2023/03/18 12:07:25;;;;;;;0.10;0.10;;;13.30;99.90;;;;;;5026482;28;21312;-77
2023/03/18 12:10:09;;;;;;;0.20;0.20;;;13.80;99.90;;;;;;5014125;28;20813;-76
2023/03/18 12:12:53;;;;;;;0.10;0.10;;;14.10;99.90;;;;;;5017459;28;20496;-77
2023/03/18 12:15:25;;;;;;;0.10;0.10;;;14.50;99.90;;;;;;5018876;28;20950;-77
2023/03/18 12:18:25;;;;;;;0.10;0.10;;;14.90;99.90;;;;;;5018399;28;20445;-77
2023/03/18 12:21:02;;;;;;;0.10;0.10;;;15.60;99.90;;;;;;5025603;28;20465;-77
2023/03/18 12:23:55;;;;;;;0.10;0.10;;;15.90;99.90;;;;;;5007870;28;20441;-76
2023/03/18 12:26:33;;;;;;;0.10;0.10;;;15.00;99.90;;;;;;5027146;28;20450;-76
2023/03/18 12:29:28;;;;;;;0.10;0.10;;;14.40;99.90;;;;;;5025839;28;20438;-76
2023/03/18 12:32:16;;;;;;;0.10;0.10;;;14.10;99.90;;;;;;5029327;28;20445;-76
2023/03/18 12:34:56;;;;;;;0.10;0.10;;;14.40;99.90;;;;;;5025643;28;20482;-76
2023/03/18 12:37:57;;;;;;;0.10;0.10;;;14.60;99.90;;;;;;5025092;28;20996;-77
2023/03/18 12:40:31;;;;;;;0.10;0.10;;;14.50;99.90;;;;;;5019700;28;20460;-76
2023/03/18 12:43:31;;;;;;;0.10;0.10;;;14.20;99.90;;;;;;5028414;28;20453;-76
2023/03/18 12:46:03;;;;;;;0.10;0.10;;;13.90;99.90;;;;;;5019690;28;20893;-76
2023/03/18 12:48:33;;;;;;;0.10;0.10;;;13.80;99.90;;;;;;5023850;28;20856;-76
2023/03/18 12:51:06;;;;;;;0.10;0.10;;;13.60;99.90;;;;;;5028565;28;20544;-76
2023/03/18 12:53:39;;;;;;;0.10;0.10;;;13.40;99.90;;;;;;5027624;28;20473;-76
2023/03/18 12:56:15;;;;;;;0.10;0.10;;;13.30;99.90;;;;;;5009734;28;20434;-76
2023/03/18 12:58:47;;;;;;;0.10;0.10;;;13.30;99.90;;;;;;5024640;28;20858;-76
2023/03/18 13:01:26;;;;;;;0.10;0.10;;;13.40;99.90;;;;;;5036754;28;20441;-76
2023/03/18 13:04:00;;;;;;;0.20;0.20;;;13.30;99.90;;;;;;5024199;28;20442;-76